Time;durP1;ratioP1;P1;durP2;ratioP2;P2;SDS_P1;SDS_P2;PMS_P1;PMS_P2;Temp;Humidity;BMP_temperature;BMP_pressure;BME280_temperature;BME280_humidity;BME280_pressure;Samples;Min_cycle;Max_cycle;Signal;HPM_P1;HPM_P2
2021/01/17 00:00:00;;;;;;;128.95;71.40;;;;;;;;;;5073529;28;20021;-71
2021/01/17 00:02:26;;;;;;;150.15;80.47;;;;;;;;;;5070861;28;20055;-69
2021/01/17 00:04:52;;;;;;;151.93;77.55;;;;;;;;;;5073008;28;20020;-70
2021/01/17 00:07:18;;;;;;;132.25;72.93;;;;;;;;;;5075109;28;20033;-71
2021/01/17 00:09:44;;;;;;;135.65;71.00;;;;;;;;;;5062048;28;20028;-69
2021/01/17 00:12:10;;;;;;;134.63;75.65;;;;;;;;;;5071470;28;20074;-70
2021/01/17 00:14:36;;;;;;;136.10;69.07;;;;;;;;;;5073227;28;20074;-71
2021/01/17 00:17:03;;;;;;;137.40;66.78;;;;;;;;;;5072749;28;20076;-71
2021/01/17 00:19:29;;;;;;;136.48;72.50;;;;;;;;;;5054898;28;20381;-70
2021/01/17 00:21:56;;;;;;;135.80;65.70;;;;;;;;;;5073142;28;20017;-72
2021/01/17 00:24:22;;;;;;;131.60;69.15;;;;;;;;;;5073114;28;20032;-72
2021/01/17 00:26:48;;;;;;;118.57;64.78;;;;;;;;;;5072340;28;20112;-73
2021/01/17 00:29:14;;;;;;;126.32;62.90;;;;;;;;;;5073010;28;20021;-72
2021/01/17 00:31:40;;;;;;;112.68;59.08;;;;;;;;;;5072383;28;20470;-71
2021/01/17 00:34:06;;;;;;;112.20;56.90;;;;;;;;;;5062641;28;20107;-72
2021/01/17 00:36:39;;;;;;;111.40;59.17;;;;;;;;;;5068574;28;20039;-70
2021/01/17 00:39:08;;;;;;;105.13;56.92;;;;;;;;;;5054134;28;20464;-70
2021/01/17 00:41:35;;;;;;;95.13;57.22;;;;;;;;;;5072093;28;20025;-72
2021/01/17 00:44:02;;;;;;;103.35;59.30;;;;;;;;;;5071492;28;20027;-72
2021/01/17 00:46:35;;;;;;;116.25;61.08;;;;;;;;;;5070961;28;20020;-73
2021/01/17 00:49:01;;;;;;;102.07;62.13;;;;;;;;;;5071226;28;20024;-70
2021/01/17 00:51:35;;;;;;;111.80;62.60;;;;;;;;;;5070750;28;20035;-71
2021/01/17 00:54:01;;;;;;;123.78;66.80;;;;;;;;;;5070771;28;20024;-74
2021/01/17 00:56:27;;;;;;;128.40;65.22;;;;;;;;;;5070603;28;20040;-73
2021/01/17 00:58:53;;;;;;;106.43;59.70;;;;;;;;;;5070890;28;20109;-70
2021/01/17 01:01:20;;;;;;;111.63;57.53;;;;;;;;;;5072982;28;20033;-71
2021/01/17 01:03:46;;;;;;;108.38;55.38;;;;;;;;;;5072136;28;20106;-70
2021/01/17 01:06:18;;;;;;;90.90;49.40;;;;;;;;;;5072858;28;20017;-71
2021/01/17 01:08:45;;;;;;;69.10;38.33;;;;;;;;;;5072966;28;20044;-70
2021/01/17 01:11:16;;;;;;;67.65;33.75;;;;;;;;;;5055172;28;20028;-72
2021/01/17 01:13:42;;;;;;;65.85;34.33;;;;;;;;;;5073057;28;20028;-71
2021/01/17 01:16:11;;;;;;;68.65;37.63;;;;;;;;;;5072398;28;20029;-72
2021/01/17 01:18:37;;;;;;;67.90;35.10;;;;;;;;;;5071754;28;20081;-72
2021/01/17 01:21:04;;;;;;;65.47;34.92;;;;;;;;;;5070670;28;20032;-73
2021/01/17 01:23:30;;;;;;;64.28;33.10;;;;;;;;;;5071198;28;20021;-71
2021/01/17 01:25:59;;;;;;;57.60;30.85;;;;;;;;;;5053747;28;20528;-73
2021/01/17 01:28:25;;;;;;;54.95;30.70;;;;;;;;;;5071186;28;20071;-73
2021/01/17 01:30:53;;;;;;;46.28;25.45;;;;;;;;;;5071922;28;20024;-72
2021/01/17 01:33:19;;;;;;;53.67;26.42;;;;;;;;;;5070768;28;20033;-71
2021/01/17 01:35:46;;;;;;;56.40;30.40;;;;;;;;;;5071586;28;20021;-72
2021/01/17 01:38:12;;;;;;;57.60;25.98;;;;;;;;;;5071180;28;20020;-71
2021/01/17 01:40:38;;;;;;;51.17;28.98;;;;;;;;;;5070161;28;20056;-70
2021/01/17 01:43:04;;;;;;;54.53;30.35;;;;;;;;;;5071957;28;20020;-71
2021/01/17 01:45:30;;;;;;;46.97;25.95;;;;;;;;;;5071922;28;20029;-70
2021/01/17 01:47:56;;;;;;;55.08;28.90;;;;;;;;;;5070947;28;20110;-70
2021/01/17 01:50:23;;;;;;;61.25;28.05;;;;;;;;;;5070967;28;20036;-69
2021/01/17 01:52:50;;;;;;;51.25;26.25;;;;;;;;;;5071132;28;20017;-71
2021/01/17 01:55:16;;;;;;;45.50;25.30;;;;;;;;;;5052931;28;20024;-72
2021/01/17 01:57:42;;;;;;;47.30;26.38;;;;;;;;;;5071102;28;20024;-74
2021/01/17 02:00:09;;;;;;;44.22;24.90;;;;;;;;;;5071563;28;20096;-73
2021/01/17 02:02:42;;;;;;;45.00;23.02;;;;;;;;;;5070545;28;20013;-73
2021/01/17 02:05:09;;;;;;;41.65;23.33;;;;;;;;;;5071343;28;20485;-70
2021/01/17 02:07:41;;;;;;;37.42;21.17;;;;;;;;;;5070928;28;20041;-72
2021/01/17 02:10:07;;;;;;;51.47;23.95;;;;;;;;;;5071025;28;20048;-70
2021/01/17 02:13:02;;;;;;;38.58;19.92;;;-1.70;99.90;;;;;;5071375;28;20036;-70
2021/01/17 02:15:33;;;;;;;48.97;22.58;;;-1.70;99.90;;;;;;5051508;28;20025;-69
2021/01/17 02:18:03;;;;;;;48.30;20.88;;;-1.70;99.90;;;;;;5072134;28;20070;-70
2021/01/17 02:20:30;;;;;;;41.53;21.38;;;-1.60;99.90;;;;;;5072045;28;20479;-70
2021/01/17 02:23:08;;;;;;;45.05;22.90;;;-1.60;99.90;;;;;;5072187;28;20020;-71
2021/01/17 02:25:38;;;;;;;41.20;22.25;;;-1.60;99.90;;;;;;5074787;28;20040;-70
2021/01/17 02:28:06;;;;;;;49.13;23.17;;;-1.60;99.90;;;;;;5079803;28;20028;-70
2021/01/17 02:30:35;;;;;;;37.33;21.10;;;-1.60;99.90;;;;;;5077452;28;20025;-70
2021/01/17 02:33:08;;;;;;;40.00;21.77;;;-1.60;99.90;;;;;;5075890;28;20028;-69
2021/01/17 02:35:35;;;;;;;36.88;17.77;;;-1.60;99.90;;;;;;5053537;28;20451;-70
2021/01/17 02:38:25;;;;;;;30.20;18.05;;;-1.70;99.90;;;;;;5057260;28;20063;-71
2021/01/17 02:41:10;;;;;;;30.80;16.90;;;-1.80;99.90;;;;;;5075894;28;20029;-71
2021/01/17 02:43:36;;;;;;;38.33;19.33;;;-1.80;99.90;;;;;;5073953;28;20017;-70
2021/01/17 02:46:02;;;;;;;34.53;16.85;;;-1.90;99.90;;;;;;5075715;28;20025;-71
2021/01/17 02:48:28;;;;;;;32.35;17.83;;;-1.90;99.90;;;;;;5075310;28;20546;-70
2021/01/17 02:50:54;;;;;;;29.65;16.30;;;-1.80;99.90;;;;;;5053061;28;20032;-71
2021/01/17 02:53:31;;;;;;;36.42;17.70;;;-1.90;99.90;;;;;;5075488;28;20489;-72
2021/01/17 02:55:59;;;;;;;32.72;17.48;;;-1.90;99.90;;;;;;5075691;28;20035;-69
2021/01/17 02:58:27;;;;;;;36.50;17.98;;;-1.90;99.90;;;;;;5074794;28;20032;-70
2021/01/17 03:00:57;;;;;;;34.42;17.48;;;-1.90;99.90;;;;;;5075338;28;20024;-70
2021/01/17 03:03:41;;;;;;;33.13;16.98;;;-1.90;99.90;;;;;;5075513;28;20486;-70
2021/01/17 03:06:08;;;;;;;37.58;17.13;;;-1.90;99.90;;;;;;5075033;28;20028;-70
2021/01/17 03:08:36;;;;;;;37.25;19.67;;;-2.00;99.90;;;;;;5075048;28;20043;-70
2021/01/17 03:11:02;;;;;;;36.25;20.60;;;-2.10;99.90;;;;;;5074931;28;20107;-71
2021/01/17 03:13:29;;;;;;;38.03;18.50;;;-2.10;99.90;;;;;;5074752;28;20020;-70
2021/01/17 03:15:55;;;;;;;36.10;19.95;;;-2.00;99.90;;;;;;5074852;28;20450;-70
2021/01/17 03:18:21;;;;;;;38.08;19.20;;;-2.00;99.90;;;;;;5075074;28;20052;-69
2021/01/17 03:20:46;;;;;;;32.58;18.65;;;-1.90;99.90;;;;;;5075202;28;20020;-70
2021/01/17 03:23:12;;;;;;;38.83;19.85;;;-1.90;99.90;;;;;;5060748;28;20021;-70
2021/01/17 03:25:38;;;;;;;39.42;19.98;;;-1.80;99.90;;;;;;5074821;28;20017;-70
2021/01/17 03:28:03;;;;;;;36.60;18.58;;;-1.80;99.90;;;;;;5074577;28;20440;-70
2021/01/17 03:30:29;;;;;;;34.72;20.00;;;-1.80;99.90;;;;;;5075615;28;20027;-70
2021/01/17 03:32:55;;;;;;;39.97;20.17;;;-1.80;99.90;;;;;;5074277;28;20078;-70
2021/01/17 03:35:20;;;;;;;33.00;19.13;;;-1.90;99.90;;;;;;5057116;28;20521;-69
2021/01/17 03:37:46;;;;;;;39.55;22.45;;;-1.80;99.90;;;;;;5062581;28;20040;-69
2021/01/17 03:40:12;;;;;;;38.40;21.85;;;-1.80;99.90;;;;;;5072374;28;20082;-70
2021/01/17 03:42:39;;;;;;;44.10;21.60;;;-1.90;99.90;;;;;;5074403;28;20024;-70
2021/01/17 03:45:06;;;;;;;34.63;20.30;;;-2.00;99.90;;;;;;5074323;28;20020;-71
2021/01/17 03:47:31;;;;;;;38.47;20.40;;;-2.00;99.90;;;;;;5073869;28;20037;-70
2021/01/17 03:49:57;;;;;;;39.42;20.95;;;-2.00;99.90;;;;;;5073780;28;20547;-70
2021/01/17 03:52:23;;;;;;;41.53;21.13;;;-2.00;99.90;;;;;;5060689;28;20103;-69
2021/01/17 03:54:49;;;;;;;40.80;21.25;;;-2.00;99.90;;;;;;5056365;28;20366;-69
2021/01/17 03:57:14;;;;;;;46.50;22.83;;;-1.90;99.90;;;;;;5074142;28;20021;-70
2021/01/17 03:59:40;;;;;;;38.75;20.80;;;-1.90;99.90;;;;;;5074160;28;20056;-69
2021/01/17 04:02:05;;;;;;;38.20;20.92;;;-1.90;99.90;;;;;;5075427;28;20025;-70
2021/01/17 04:04:31;;;;;;;38.78;20.85;;;-1.90;99.90;;;;;;5073952;28;20020;-69
2021/01/17 04:06:57;;;;;;;38.78;20.20;;;-1.90;99.90;;;;;;5073969;28;20047;-70
2021/01/17 04:09:23;;;;;;;47.78;22.00;;;-2.00;99.90;;;;;;5074038;28;20028;-70
2021/01/17 04:11:49;;;;;;;37.15;20.10;;;-2.00;99.90;;;;;;5074174;28;20055;-70
2021/01/17 04:14:15;;;;;;;33.67;17.58;;;-2.00;99.90;;;;;;5073694;28;20024;-72
2021/01/17 04:16:51;;;;;;;37.53;21.20;;;-2.00;99.90;;;;;;5073761;28;20441;-71
2021/01/17 04:19:17;;;;;;;38.00;19.95;;;-2.00;99.90;;;;;;5074187;28;20028;-71
2021/01/17 04:21:43;;;;;;;37.85;21.65;;;-1.90;99.90;;;;;;5074202;28;20374;-69
2021/01/17 04:24:09;;;;;;;46.30;23.05;;;-1.80;99.90;;;;;;5074484;28;20028;-69
2021/01/17 04:26:35;;;;;;;38.97;23.48;;;-1.90;99.90;;;;;;5073777;28;20027;-70
2021/01/17 04:29:00;;;;;;;73.97;38.72;;;-1.80;99.90;;;;;;5073786;28;20037;-73
2021/01/17 04:31:26;;;;;;;54.83;29.58;;;-1.80;99.90;;;;;;5073434;28;20036;-70
2021/01/17 04:33:52;;;;;;;45.78;23.73;;;-1.70;99.90;;;;;;5073868;28;20020;-71
2021/01/17 04:36:17;;;;;;;45.05;24.13;;;-1.60;99.90;;;;;;5073204;28;20154;-70
2021/01/17 04:38:43;;;;;;;47.88;24.55;;;-1.60;99.90;;;;;;5073509;28;20031;-71
2021/01/17 04:41:14;;;;;;;40.33;20.88;;;-1.70;99.90;;;;;;5073449;28;20028;-71
2021/01/17 04:43:46;;;;;;;35.53;22.30;;;-1.70;99.90;;;;;;5073302;28;20096;-69
2021/01/17 04:46:14;;;;;;;40.23;22.07;;;-1.80;99.90;;;;;;5056184;28;20028;-69
2021/01/17 04:48:42;;;;;;;35.60;20.38;;;-1.80;99.90;;;;;;5076879;28;20292;-69
2021/01/17 04:51:10;;;;;;;40.65;20.85;;;-1.80;99.90;;;;;;5074225;28;20028;-71
2021/01/17 04:53:37;;;;;;;39.80;21.60;;;-1.80;99.90;;;;;;5073345;28;20027;-72
2021/01/17 04:56:20;;;;;;;43.22;23.08;;;-1.70;99.90;;;;;;5073236;28;20036;-70
2021/01/17 04:59:13;;;;;;;32.13;21.05;;;-1.70;99.90;;;;;;5073536;28;20021;-73
2021/01/17 05:01:48;;;;;;;38.05;20.90;;;-1.60;99.90;;;;;;5072790;28;20119;-70
2021/01/17 05:04:46;;;;;;;34.60;20.77;;;-1.60;99.90;;;;;;5055045;28;20497;-69
2021/01/17 05:07:17;;;;;;;34.60;20.70;;;-1.60;99.90;;;;;;5056397;28;20032;-71
2021/01/17 05:09:58;;;;;;;37.80;20.58;;;-1.60;99.90;;;;;;5073201;28;20029;-69
2021/01/17 05:12:36;;;;;;;35.13;20.30;;;-1.50;99.90;;;;;;5072608;28;20094;-68
2021/01/17 05:15:03;;;;;;;33.45;19.23;;;-1.50;99.90;;;;;;5060231;28;20021;-70
2021/01/17 05:17:37;;;;;;;40.75;23.50;;;-1.50;99.90;;;;;;5072121;28;20563;-70
2021/01/17 05:20:04;;;;;;;37.03;20.70;;;-1.60;99.90;;;;;;5041566;28;20040;-70
2021/01/17 05:22:31;;;;;;;35.85;20.38;;;-1.60;99.90;;;;;;5073156;28;20111;-71
2021/01/17 05:24:58;;;;;;;27.55;17.40;;;-1.80;99.90;;;;;;5073018;28;20485;-69
2021/01/17 05:27:24;;;;;;;32.03;19.33;;;-1.80;99.90;;;;;;5072985;28;20174;-71
2021/01/17 05:29:50;;;;;;;34.47;21.40;;;-1.80;99.90;;;;;;5073010;28;20450;-71
2021/01/17 05:32:16;;;;;;;42.72;23.30;;;-1.80;99.90;;;;;;5072815;28;20032;-70
2021/01/17 05:34:42;;;;;;;43.55;23.70;;;-1.70;99.90;;;;;;5072562;28;20024;-69
2021/01/17 05:37:13;;;;;;;81.70;44.47;;;-1.70;99.90;;;;;;5072679;28;20074;-71
2021/01/17 05:39:59;;;;;;;47.15;27.42;;;-1.80;99.90;;;;;;5072965;28;20020;-70
2021/01/17 05:42:29;;;;;;;53.78;28.27;;;-1.70;99.90;;;;;;5061566;28;20096;-69
2021/01/17 05:45:15;;;;;;;52.97;29.27;;;-1.60;99.90;;;;;;5072589;28;20025;-70
2021/01/17 05:47:51;;;;;;;45.25;26.23;;;-1.70;99.90;;;;;;5072900;28;20037;-71
2021/01/17 05:50:17;;;;;;;41.72;22.48;;;-1.70;99.90;;;;;;5072811;28;20470;-72
2021/01/17 05:52:43;;;;;;;37.33;20.60;;;-1.70;99.90;;;;;;5072576;28;20021;-70
2021/01/17 05:55:16;;;;;;;37.70;21.05;;;-1.90;99.90;;;;;;5073020;28;20347;-71
2021/01/17 05:57:41;;;;;;;40.75;20.02;;;-2.00;99.90;;;;;;5065014;28;20470;-70
2021/01/17 06:00:08;;;;;;;39.75;20.50;;;-2.10;99.90;;;;;;5068421;28;20036;-70
2021/01/17 06:02:35;;;;;;;39.40;21.25;;;-2.20;99.90;;;;;;5076523;28;20052;-72
2021/01/17 06:05:02;;;;;;;42.08;24.88;;;-2.10;99.90;;;;;;5076316;28;20070;-71
2021/01/17 06:07:30;;;;;;;40.67;22.80;;;-2.10;99.90;;;;;;5075337;28;20032;-71
2021/01/17 06:10:07;;;;;;;41.05;20.35;;;-2.10;99.90;;;;;;5045898;28;20355;-69
2021/01/17 06:12:33;;;;;;;32.85;21.25;;;-2.20;99.90;;;;;;5076522;28;20043;-71
2021/01/17 06:15:09;;;;;;;31.75;18.40;;;-2.30;99.90;;;;;;5076126;28;20021;-71
2021/01/17 06:17:45;;;;;;;30.52;18.52;;;-2.30;99.90;;;;;;5070623;28;20055;-70
2021/01/17 06:20:21;;;;;;;32.40;17.80;;;-2.40;99.90;;;;;;5065776;28;20351;-71
2021/01/17 06:22:56;;;;;;;31.45;19.25;;;-2.40;99.90;;;;;;5096570;28;20024;-70
2021/01/17 06:25:32;;;;;;;36.92;21.27;;;-2.40;99.90;;;;;;5096720;28;20024;-70
2021/01/17 06:28:12;;;;;;;42.13;20.08;;;-2.30;99.90;;;;;;5081478;28;20118;-70
2021/01/17 06:30:38;;;;;;;38.55;23.45;;;-2.40;99.90;;;;;;5096449;28;20442;-71
2021/01/17 06:33:05;;;;;;;41.85;24.60;;;-2.40;99.90;;;;;;5077972;28;20024;-69
2021/01/17 06:35:33;;;;;;;41.85;24.83;;;-2.50;99.90;;;;;;5096100;28;20475;-69
2021/01/17 06:38:14;;;;;;;41.40;22.73;;;-2.40;99.90;;;;;;5095951;28;20046;-70
2021/01/17 06:40:41;;;;;;;45.05;23.85;;;-2.30;99.90;;;;;;5084168;28;20103;-70
2021/01/17 06:43:10;;;;;;;47.92;27.17;;;-2.30;99.90;;;;;;5095682;28;20024;-70
2021/01/17 06:45:46;;;;;;;46.83;27.52;;;-2.20;99.90;;;;;;5096068;28;20020;-70
2021/01/17 06:48:22;;;;;;;44.03;26.20;;;-2.20;99.90;;;;;;5095497;28;20040;-70
2021/01/17 06:50:48;;;;;;;47.88;27.23;;;-2.10;99.90;;;;;;5083180;28;20035;-71
2021/01/17 06:53:22;;;;;;;47.28;28.38;;;-2.10;99.90;;;;;;5095653;28;20028;-69
2021/01/17 06:55:49;;;;;;;34.63;21.52;;;-2.00;99.90;;;;;;5082044;28;20030;-68
2021/01/17 06:58:19;;;;;;;28.13;18.00;;;-2.00;99.90;;;;;;5095769;28;20023;-70
2021/01/17 07:00:49;;;;;;;37.20;19.23;;;-2.00;99.90;;;;;;5095867;28;20575;-69
2021/01/17 07:03:19;;;;;;;36.33;20.58;;;-1.90;99.90;;;;;;5087478;28;20079;-71
2021/01/17 07:06:20;;;;;;;36.85;19.35;;;-2.00;99.90;;;;;;5089984;28;20032;-69
2021/01/17 07:08:51;;;;;;;33.63;19.67;;;-1.90;99.90;;;;;;5098952;28;20040;-70
2021/01/17 07:11:54;;;;;;;38.45;22.13;;;-1.80;99.90;;;;;;5094904;28;20020;-69
2021/01/17 07:14:29;;;;;;;35.17;21.10;;;-1.80;99.90;;;;;;5094503;28;20063;-69
2021/01/17 07:16:57;;;;;;;42.78;24.02;;;-1.70;99.90;;;;;;5086188;28;20405;-70
2021/01/17 07:19:30;;;;;;;42.13;24.42;;;-1.80;99.90;;;;;;5073552;28;20024;-69
2021/01/17 07:21:56;;;;;;;50.28;29.10;;;-1.90;99.90;;;;;;5073722;28;20021;-70
2021/01/17 07:24:26;;;;;;;48.13;26.10;;;-1.80;99.90;;;;;;5071943;28;20036;-69
2021/01/17 07:27:06;;;;;;;57.13;26.40;;;-1.80;99.90;;;;;;5054772;28;20525;-73
2021/01/17 07:29:35;;;;;;;48.97;29.08;;;-1.80;99.90;;;;;;5073152;28;20028;-71
2021/01/17 07:32:01;;;;;;;45.22;26.35;;;-1.80;99.90;;;;;;5062869;28;20021;-71
2021/01/17 07:34:30;;;;;;;46.05;26.10;;;-1.80;99.90;;;;;;5073017;28;20020;-71
2021/01/17 07:37:00;;;;;;;49.92;29.15;;;-1.80;99.90;;;;;;5073063;28;20028;-69
2021/01/17 07:39:33;;;;;;;52.13;31.02;;;-1.80;99.90;;;;;;5073946;28;20373;-70
2021/01/17 07:42:01;;;;;;;57.25;32.95;;;-1.80;99.90;;;;;;5073229;28;20024;-69
2021/01/17 07:44:32;;;;;;;58.00;34.08;;;-1.70;99.90;;;;;;5072836;28;20139;-69
2021/01/17 07:47:04;;;;;;;80.22;45.22;;;-1.70;99.90;;;;;;5072571;28;20020;-71
2021/01/17 07:49:31;;;;;;;74.40;43.67;;;-1.60;99.90;;;;;;5074983;28;20108;-70
2021/01/17 07:52:01;;;;;;;73.13;41.33;;;-1.70;99.90;;;;;;5071707;28;20094;-69
2021/01/17 07:54:29;;;;;;;86.25;40.58;;;-1.80;99.90;;;;;;5070991;28;20025;-70
2021/01/17 07:56:57;;;;;;;72.65;39.80;;;-1.80;99.90;;;;;;5071060;28;20385;-70
2021/01/17 07:59:25;;;;;;;95.40;49.75;;;-1.80;99.90;;;;;;5049681;28;20032;-70
2021/01/17 08:01:51;;;;;;;90.57;46.45;;;-1.70;99.90;;;;;;5071662;28;20524;-72
2021/01/17 08:04:18;;;;;;;86.65;42.20;;;-1.60;99.90;;;;;;5071612;28;20021;-72
2021/01/17 08:06:45;;;;;;;62.28;31.38;;;-1.40;99.90;;;;;;5072773;28;20035;-73
2021/01/17 08:09:12;;;;;;;59.05;30.35;;;-1.40;99.90;;;;;;5044277;28;20033;-72
2021/01/17 08:11:40;;;;;;;64.93;33.78;;;-1.30;99.90;;;;;;5074009;28;20027;-73
2021/01/17 08:14:17;;;;;;;71.65;38.13;;;-1.40;99.90;;;;;;5069098;28;20078;-71
2021/01/17 08:17:01;;;;;;;60.60;34.15;;;-1.50;99.90;;;;;;5072390;28;20428;-72
2021/01/17 08:19:53;;;;;;;69.75;36.90;;;-1.50;99.90;;;;;;5072673;28;20024;-70
2021/01/17 08:22:22;;;;;;;60.30;31.67;;;-1.40;99.90;;;;;;5067297;28;20047;-70
2021/01/17 08:24:56;;;;;;;43.40;22.98;;;-1.40;99.90;;;;;;5069855;28;20020;-69
2021/01/17 08:27:30;;;;;;;36.38;21.52;;;-1.40;99.90;;;;;;5052612;28;20039;-70
2021/01/17 08:30:02;;;;;;;44.90;23.20;;;-1.30;99.90;;;;;;5055692;28;20021;-71
2021/01/17 08:32:48;;;;;;;52.55;26.08;;;-1.30;99.90;;;;;;5065552;28;20047;-70
2021/01/17 08:35:19;;;;;;;49.42;25.48;;;-1.30;99.90;;;;;;5054526;28;20403;-72
2021/01/17 08:38:15;;;;;;;45.80;26.35;;;-1.30;99.90;;;;;;5073569;28;20020;-69
2021/01/17 08:40:46;;;;;;;42.90;23.75;;;-1.20;99.90;;;;;;5068948;28;20020;-71
2021/01/17 08:43:15;;;;;;;42.75;22.10;;;-1.20;99.90;;;;;;5073805;28;20052;-71
2021/01/17 08:45:48;;;;;;;42.97;21.77;;;-1.10;99.90;;;;;;5064645;28;20025;-70
2021/01/17 08:48:17;;;;;;;;;;;-1.20;99.90;;;;;;5057711;28;20121;-72
2021/01/17 08:50:44;;;;;;;41.03;22.20;;;-1.20;99.90;;;;;;5068952;28;19909;-69
2021/01/17 08:53:17;;;;;;;54.10;30.67;;;-1.10;99.90;;;;;;5071707;28;20067;-70
2021/01/17 08:55:47;;;;;;;72.43;40.50;;;-1.20;99.90;;;;;;5072534;28;20039;-71
2021/01/17 08:58:36;;;;;;;50.08;27.52;;;-1.00;99.90;;;;;;5054654;28;20043;-70
2021/01/17 09:01:04;;;;;;;48.00;28.38;;;-0.80;99.90;;;;;;5061748;28;20024;-71
2021/01/17 09:03:37;;;;;;;42.17;22.80;;;-0.80;99.90;;;;;;5065868;28;20028;-69
2021/01/17 09:06:31;;;;;;;39.43;23.23;;;-0.90;99.90;;;;;;5068525;28;20044;-72
2021/01/17 09:08:57;;;;;;;44.33;23.20;;;-0.70;99.90;;;;;;5062877;28;20036;-70
2021/01/17 09:11:29;;;;;;;46.70;26.05;;;-0.70;99.90;;;;;;5067181;28;20103;-70
2021/01/17 09:14:16;;;;;;;58.28;30.75;;;-0.80;99.90;;;;;;5073327;28;20025;-69
2021/01/17 09:17:02;;;;;;;50.22;28.83;;;-0.80;99.90;;;;;;5051453;28;20547;-71
2021/01/17 09:19:31;;;;;;;56.28;30.80;;;-0.90;99.90;;;;;;5065693;28;20033;-70
2021/01/17 09:21:58;;;;;;;68.03;38.05;;;-0.70;99.90;;;;;;5071761;28;20361;-71
2021/01/17 09:24:29;;;;;;;60.65;35.28;;;-0.80;99.90;;;;;;5057702;28;20032;-70
2021/01/17 09:26:57;;;;;;;81.45;45.00;;;-0.50;99.90;;;;;;5067452;28;20075;-72
2021/01/17 09:29:26;;;;;;;67.88;38.03;;;-0.30;99.90;;;;;;5069924;28;20466;-70
2021/01/17 09:31:57;;;;;;;90.18;42.58;;;-0.10;99.90;;;;;;5071778;28;20021;-69
2021/01/17 09:34:25;;;;;;;75.00;42.65;;;-0.10;99.90;;;;;;5074224;28;20024;-73
2021/01/17 09:36:52;;;;;;;75.13;36.55;;;0.10;99.90;;;;;;5061711;28;20110;-68
2021/01/17 09:39:38;;;;;;;76.50;38.00;;;0.00;99.90;;;;;;5070346;28;20053;-72
2021/01/17 09:42:06;;;;;;;59.55;33.17;;;0.10;99.90;;;;;;5070924;28;20370;-71
2021/01/17 09:44:32;;;;;;;78.78;38.17;;;0.10;99.90;;;;;;5069434;28;20024;-72
2021/01/17 09:46:59;;;;;;;107.00;60.30;;;-0.10;99.90;;;;;;5074237;28;20070;-73
2021/01/17 09:49:27;;;;;;;106.65;53.35;;;-0.20;99.90;;;;;;5060722;28;20121;-72
2021/01/17 09:51:56;;;;;;;88.47;46.28;;;-0.10;99.90;;;;;;5075870;28;20028;-72
2021/01/17 09:54:23;;;;;;;63.55;36.47;;;-0.10;99.90;;;;;;5073719;28;20035;-72
2021/01/17 09:56:49;;;;;;;105.88;59.20;;;-0.10;99.90;;;;;;5073215;28;20486;-71
2021/01/17 09:59:19;;;;;;;82.25;43.95;;;-0.30;99.90;;;;;;5072548;28;20028;-71
2021/01/17 10:01:46;;;;;;;61.30;32.42;;;-0.10;99.90;;;;;;5070900;28;20017;-71
2021/01/17 10:04:23;;;;;;;91.78;49.00;;;-0.10;99.90;;;;;;5075122;28;20356;-71
2021/01/17 10:06:51;;;;;;;58.20;34.30;;;0.10;99.90;;;;;;5073465;28;20021;-70
2021/01/17 10:09:19;;;;;;;69.65;39.28;;;0.10;99.90;;;;;;5072402;28;20035;-70
2021/01/17 10:11:44;;;;;;;76.40;42.65;;;0.30;99.90;;;;;;5075134;28;20020;-71
2021/01/17 10:14:21;;;;;;;65.30;37.28;;;0.20;99.90;;;;;;5073740;28;20046;-71
2021/01/17 10:16:50;;;;;;;49.58;29.60;;;0.40;99.90;;;;;;5073440;28;20041;-70
2021/01/17 10:19:21;;;;;;;49.10;27.20;;;0.50;99.90;;;;;;5071233;28;20027;-71
2021/01/17 10:21:47;;;;;;;41.85;23.65;;;0.40;99.90;;;;;;5073254;28;20042;-71
2021/01/17 10:24:23;;;;;;;56.67;31.15;;;0.50;99.90;;;;;;5074157;28;20025;-71
2021/01/17 10:26:51;;;;;;;51.08;29.08;;;0.40;99.90;;;;;;5074440;28;20016;-77
2021/01/17 10:29:25;;;;;;;47.60;26.10;;;0.30;99.90;;;;;;5056735;28;20043;-74
2021/01/17 10:32:03;;;;;;;62.92;33.40;;;0.30;99.90;;;;;;5074808;28;20031;-74
2021/01/17 10:34:35;;;;;;;55.30;31.08;;;0.40;99.90;;;;;;5074763;28;20024;-73
2021/01/17 10:37:05;;;;;;;58.58;33.90;;;0.30;99.90;;;;;;5074427;28;20024;-74
2021/01/17 10:39:32;;;;;;;43.70;22.20;;;0.40;99.90;;;;;;5074475;28;20660;-72
2021/01/17 10:42:04;;;;;;;58.40;32.05;;;0.30;99.90;;;;;;5072139;28;20027;-73
2021/01/17 10:44:34;;;;;;;62.10;31.45;;;0.30;99.90;;;;;;5073219;28;20090;-72
2021/01/17 10:47:09;;;;;;;66.57;36.88;;;0.30;99.90;;;;;;5072089;28;20027;-73
2021/01/17 10:49:38;;;;;;;67.35;38.20;;;0.20;99.90;;;;;;5073730;28;20485;-75
2021/01/17 10:52:22;;;;;;;55.25;31.00;;;0.40;99.90;;;;;;5073834;28;20055;-75
2021/01/17 10:54:52;;;;;;;49.08;26.45;;;0.50;99.90;;;;;;5073794;28;20016;-74
2021/01/17 10:57:20;;;;;;;61.35;31.52;;;0.50;99.90;;;;;;5055926;28;20054;-74
2021/01/17 10:59:46;;;;;;;63.17;34.00;;;0.60;99.90;;;;;;5072868;28;20020;-73
2021/01/17 11:02:24;;;;;;;80.07;45.30;;;0.80;99.90;;;;;;5072500;28;20028;-73
2021/01/17 11:04:50;;;;;;;66.55;39.28;;;0.90;99.90;;;;;;5072819;28;20090;-72
2021/01/17 11:07:25;;;;;;;60.72;34.33;;;1.00;99.90;;;;;;5073429;28;20056;-73
2021/01/17 11:09:51;;;;;;;65.03;34.65;;;0.90;99.90;;;;;;5051439;28;20025;-72
2021/01/17 11:12:32;;;;;;;63.40;33.92;;;1.00;99.90;;;;;;5074324;28;20446;-74
2021/01/17 11:15:09;;;;;;;67.47;38.40;;;1.10;99.90;;;;;;5063031;28;20021;-71
2021/01/17 11:17:36;;;;;;;45.97;29.08;;;0.80;99.90;;;;;;5067416;28;20045;-72
2021/01/17 11:20:05;;;;;;;53.80;32.53;;;0.80;99.90;;;;;;5063019;28;20384;-71
2021/01/17 11:22:33;;;;;;;55.50;30.20;;;0.70;99.90;;;;;;5071594;28;20063;-69
2021/01/17 11:24:58;;;;;;;57.50;32.65;;;0.60;99.90;;;;;;5072731;28;20021;-69
2021/01/17 11:27:36;;;;;;;58.67;28.55;;;0.70;99.90;;;;;;5073147;28;20043;-74
2021/01/17 11:30:05;;;;;;;44.80;25.58;;;0.70;99.90;;;;;;5053692;28;20055;-71
2021/01/17 11:32:35;;;;;;;58.45;35.17;;;0.70;99.90;;;;;;5072400;28;20381;-70
2021/01/17 11:35:01;;;;;;;81.85;46.13;;;0.80;99.90;;;;;;5072112;28;20021;-69
2021/01/17 11:37:35;;;;;;;64.35;35.13;;;0.90;99.90;;;;;;5068847;28;20073;-72
2021/01/17 11:40:05;;;;;;;;;;;0.70;99.90;;;;;;5070938;28;20025;-71
2021/01/17 11:42:30;;;;;;;55.72;28.08;;;0.70;99.90;;;;;;5074275;28;19908;-72
2021/01/17 11:45:00;;;;;;;42.90;25.15;;;0.30;99.90;;;;;;5074564;28;20032;-71
2021/01/17 11:47:26;;;;;;;62.40;33.40;;;0.50;99.90;;;;;;5078097;28;20056;-71
2021/01/17 11:49:51;;;;;;;59.00;30.67;;;0.60;99.90;;;;;;5075024;28;20135;-70
2021/01/17 11:52:17;;;;;;;52.83;31.25;;;0.50;99.90;;;;;;5074264;28;20103;-71
2021/01/17 11:54:43;;;;;;;64.75;33.45;;;0.60;99.90;;;;;;5074512;28;20029;-74
2021/01/17 11:57:13;;;;;;;43.13;24.38;;;0.70;99.90;;;;;;5073150;28;20041;-73
2021/01/17 11:59:39;;;;;;;51.70;28.02;;;0.40;99.90;;;;;;5064221;28;20043;-74
2021/01/17 12:02:23;;;;;;;47.10;26.40;;;0.50;99.90;;;;;;5070932;28;20024;-72
2021/01/17 12:04:59;;;;;;;43.08;24.38;;;0.60;99.90;;;;;;5070821;28;20099;-71
2021/01/17 12:07:26;;;;;;;49.55;27.35;;;0.70;99.90;;;;;;5073858;28;20028;-73
2021/01/17 12:10:09;;;;;;;43.97;24.45;;;0.80;99.90;;;;;;5056055;28;20020;-70
2021/01/17 12:12:36;;;;;;;40.03;24.13;;;0.30;99.90;;;;;;5073963;28;20093;-71
2021/01/17 12:15:07;;;;;;;58.97;31.27;;;0.40;99.90;;;;;;5056292;28;20032;-73
2021/01/17 12:17:32;;;;;;;76.22;40.13;;;0.50;99.90;;;;;;5073573;28;20078;-72
2021/01/17 12:19:58;;;;;;;75.85;41.53;;;0.60;99.90;;;;;;5072600;28;20458;-71
2021/01/17 12:22:24;;;;;;;70.13;36.10;;;0.40;99.90;;;;;;5071489;28;20046;-72
2021/01/17 12:24:49;;;;;;;59.42;33.17;;;0.40;99.90;;;;;;5042949;28;20032;-70
2021/01/17 12:27:15;;;;;;;55.38;31.73;;;0.30;99.90;;;;;;5065125;28;20327;-72
2021/01/17 12:29:41;;;;;;;62.58;32.50;;;0.50;99.90;;;;;;5073654;28;20036;-71
2021/01/17 12:32:07;;;;;;;57.95;32.00;;;0.60;99.90;;;;;;5073658;28;20024;-69
2021/01/17 12:34:33;;;;;;;52.05;28.98;;;0.80;99.90;;;;;;5043965;28;20474;-71
2021/01/17 12:36:59;;;;;;;57.92;32.42;;;0.80;99.90;;;;;;5072698;28;20024;-69
2021/01/17 12:39:24;;;;;;;62.97;34.00;;;0.90;99.90;;;;;;5062723;28;20037;-72
2021/01/17 12:41:52;;;;;;;53.50;29.48;;;1.10;99.90;;;;;;5070747;28;20028;-74
2021/01/17 12:44:19;;;;;;;45.35;24.45;;;1.20;99.90;;;;;;5049830;28;20108;-71
2021/01/17 12:46:46;;;;;;;40.25;21.95;;;1.00;99.90;;;;;;5046709;28;20085;-74
2021/01/17 12:49:14;;;;;;;53.08;28.25;;;0.80;99.90;;;;;;5072567;28;20024;-72
2021/01/17 12:51:40;;;;;;;53.90;28.98;;;0.60;99.90;;;;;;5072434;28;20024;-71
2021/01/17 12:54:05;;;;;;;63.22;36.47;;;0.60;99.90;;;;;;5071655;28;20063;-70
2021/01/17 12:56:31;;;;;;;58.38;30.85;;;0.70;99.90;;;;;;5072161;28;20056;-74
2021/01/17 12:58:57;;;;;;;66.72;36.45;;;0.70;99.90;;;;;;5071918;28;20025;-75